Time;durP1;ratioP1;P1;durP2;ratioP2;P2;SDS_P1;SDS_P2;PMS_P1;PMS_P2;Temp;Humidity;BMP_temperature;BMP_pressure;BME280_temperature;BME280_humidity;BME280_pressure;Samples;Min_cycle;Max_cycle;Signal;HPM_P1;HPM_P2
2021/08/01 00:01:25;;;;;;;6.75;2.88;;;17.40;95.50;;;;;;5018015;28;20385;-70
2021/08/01 00:03:51;;;;;;;4.57;2.90;;;17.40;95.50;;;;;;5017942;28;20025;-71
2021/08/01 00:06:17;;;;;;;7.72;3.22;;;17.40;95.50;;;;;;5015758;28;20049;-70
2021/08/01 00:08:43;;;;;;;7.07;3.72;;;17.40;95.40;;;;;;5017541;28;20135;-70
2021/08/01 00:11:10;;;;;;;4.97;3.33;;;17.40;95.30;;;;;;5018014;28;20080;-70
2021/08/01 00:13:36;;;;;;;5.00;3.08;;;17.40;95.40;;;;;;5019854;28;20030;-70
2021/08/01 00:16:02;;;;;;;8.00;3.70;;;17.40;95.30;;;;;;5016069;28;20071;-70
2021/08/01 00:18:28;;;;;;;6.15;4.07;;;17.40;95.20;;;;;;5014745;28;20373;-70
2021/08/01 00:20:54;;;;;;;5.28;3.40;;;17.40;95.20;;;;;;5023640;28;20049;-70
2021/08/01 00:23:20;;;;;;;5.07;3.70;;;17.30;95.30;;;;;;5021211;28;20092;-70
2021/08/01 00:25:46;;;;;;;5.18;3.55;;;17.30;95.30;;;;;;5016838;28;20038;-71
2021/08/01 00:28:11;;;;;;;7.35;4.03;;;17.30;95.30;;;;;;5021077;28;20369;-69
2021/08/01 00:30:37;;;;;;;5.93;3.95;;;17.40;95.30;;;;;;5018190;28;20030;-70
2021/08/01 00:33:03;;;;;;;9.50;3.60;;;17.40;95.20;;;;;;5019546;28;20033;-70
2021/08/01 00:35:28;;;;;;;6.38;3.47;;;17.30;95.10;;;;;;5013757;28;20045;-70
2021/08/01 00:37:54;;;;;;;8.02;3.58;;;17.30;95.00;;;;;;5017244;28;20032;-70
2021/08/01 00:40:22;;;;;;;7.35;4.05;;;17.30;95.10;;;;;;5021239;28;20034;-71
2021/08/01 00:42:48;;;;;;;9.25;3.60;;;17.30;95.10;;;;;;5016813;28;20044;-70
2021/08/01 00:45:14;;;;;;;4.57;3.03;;;17.30;95.10;;;;;;5020390;28;20373;-71
2021/08/01 00:47:42;;;;;;;6.43;3.83;;;17.30;95.10;;;;;;5020393;28;20056;-70
2021/08/01 00:50:09;;;;;;;5.13;4.00;;;17.20;95.10;;;;;;5017422;28;20037;-70
2021/08/01 00:52:36;;;;;;;7.95;3.88;;;17.30;95.10;;;;;;5018268;28;20025;-70
2021/08/01 00:55:06;;;;;;;5.95;4.00;;;17.30;95.30;;;;;;5018647;28;20076;-70
2021/08/01 00:57:31;;;;;;;6.40;3.42;;;17.20;95.10;;;;;;5017195;28;20084;-70
2021/08/01 00:59:57;;;;;;;5.32;3.42;;;17.20;95.10;;;;;;5018029;28;20025;-70
2021/08/01 01:02:37;;;;;;;4.43;3.13;;;17.20;95.10;;;;;;5022719;28;20472;-70
2021/08/01 01:05:14;;;;;;;5.22;3.70;;;17.20;95.10;;;;;;5010280;28;20026;-71
2021/08/01 01:07:51;;;;;;;6.32;2.97;;;17.20;95.10;;;;;;5021434;28;20122;-70
2021/08/01 01:10:40;;;;;;;4.32;3.25;;;17.30;95.20;;;;;;5019191;28;20037;-71
2021/08/01 01:13:17;;;;;;;6.35;3.25;;;17.20;95.30;;;;;;5018688;28;20065;-70
2021/08/01 01:15:53;;;;;;;8.50;3.53;;;17.20;95.20;;;;;;5019382;28;20161;-71
2021/08/01 01:18:26;;;;;;;7.68;3.40;;;17.20;95.20;;;;;;5020795;28;20077;-70
2021/08/01 01:21:23;;;;;;;5.88;3.40;;;17.30;95.10;;;;;;5018595;28;20121;-71
2021/08/01 01:24:08;;;;;;;5.90;3.70;;;17.20;95.10;;;;;;5017024;28;20037;-70
2021/08/01 01:26:41;;;;;;;7.00;3.88;;;17.20;95.10;;;;;;5021338;28;20050;-70
2021/08/01 01:29:06;;;;;;;7.38;3.42;;;17.20;95.30;;;;;;5018333;28;20148;-70
2021/08/01 01:31:47;;;;;;;3.97;3.30;;;17.10;95.10;;;;;;5022235;28;20056;-70
2021/08/01 01:34:20;;;;;;;4.22;3.38;;;17.20;95.10;;;;;;5022086;28;20126;-70
2021/08/01 01:36:48;;;;;;;5.57;3.33;;;17.10;95.20;;;;;;5018367;28;20021;-70
2021/08/01 01:39:15;;;;;;;6.45;3.25;;;17.10;95.20;;;;;;5022384;28;20388;-70
2021/08/01 01:41:46;;;;;;;8.93;3.50;;;17.10;95.20;;;;;;5021024;28;20025;-70
2021/08/01 01:44:12;;;;;;;7.32;4.25;;;17.10;95.10;;;;;;5019118;28;20034;-71
2021/08/01 01:46:39;;;;;;;6.97;3.70;;;17.10;95.20;;;;;;5020263;28;20048;-69
2021/08/01 01:49:08;;;;;;;5.35;3.55;;;17.10;95.10;;;;;;5020723;28;20021;-70
2021/08/01 01:51:35;;;;;;;6.82;3.67;;;17.10;95.10;;;;;;5020500;28;20032;-70
2021/08/01 01:54:01;;;;;;;5.38;3.30;;;17.10;95.10;;;;;;5018923;28;20029;-71
2021/08/01 01:56:30;;;;;;;4.68;3.05;;;17.10;95.10;;;;;;5017419;28;20473;-70
2021/08/01 01:58:57;;;;;;;6.85;3.22;;;17.10;95.10;;;;;;5018555;28;20032;-70
2021/08/01 02:01:22;;;;;;;6.57;3.67;;;17.10;95.10;;;;;;5027120;28;20017;-71
2021/08/01 02:03:50;;;;;;;4.53;3.22;;;17.10;95.10;;;;;;5020373;28;20038;-71
2021/08/01 02:06:16;;;;;;;3.92;3.00;;;17.10;95.20;;;;;;5019937;28;20038;-70
2021/08/01 02:08:57;;;;;;;4.65;3.25;;;17.10;95.20;;;;;;5015088;28;20386;-70
2021/08/01 02:12:12;;;;;;;5.57;3.22;;;17.20;95.20;;;;;;5017570;28;20038;-70
2021/08/01 02:14:59;;;;;;;6.10;3.00;;;17.10;95.20;;;;;;5010664;28;20052;-69
2021/08/01 02:17:44;;;;;;;8.82;3.08;;;17.10;95.40;;;;;;5019422;28;20064;-70
2021/08/01 02:20:11;;;;;;;5.38;3.70;;;17.20;95.10;;;;;;5018771;28;20080;-70
2021/08/01 02:22:38;;;;;;;4.95;3.55;;;17.20;95.10;;;;;;5018675;28;20022;-71
2021/08/01 02:25:05;;;;;;;3.97;2.75;;;17.10;95.30;;;;;;5018806;28;20105;-70
2021/08/01 02:27:33;;;;;;;5.15;3.17;;;17.10;95.40;;;;;;5016816;28;20025;-70
2021/08/01 02:30:01;;;;;;;10.38;3.30;;;17.20;95.20;;;;;;5021576;28;20029;-70
2021/08/01 02:32:29;;;;;;;7.65;3.95;;;17.20;95.10;;;;;;5023375;28;20033;-70
2021/08/01 02:34:56;;;;;;;6.18;3.55;;;17.10;95.10;;;;;;5010539;28;20030;-70
2021/08/01 02:37:23;;;;;;;9.52;4.28;;;17.10;95.20;;;;;;5013106;28;20622;-71
2021/08/01 02:39:51;;;;;;;6.63;3.45;;;17.10;95.30;;;;;;5018388;28;20032;-70
2021/08/01 02:42:18;;;;;;;4.63;3.35;;;17.10;95.30;;;;;;5015860;28;20026;-71
2021/08/01 02:44:44;;;;;;;7.78;3.83;;;17.10;95.30;;;;;;5013924;28;20087;-70
2021/08/01 02:47:16;;;;;;;8.32;4.03;;;17.10;95.30;;;;;;5015974;28;20079;-70
2021/08/01 02:49:44;;;;;;;6.38;3.10;;;17.10;95.30;;;;;;5018541;28;20124;-69
2021/08/01 02:52:20;;;;;;;7.15;4.20;;;17.10;95.40;;;;;;5019002;28;20104;-71
2021/08/01 02:54:49;;;;;;;5.88;3.42;;;17.10;95.50;;;;;;5014002;28;20037;-70
2021/08/01 02:57:17;;;;;;;6.22;3.10;;;17.10;95.40;;;;;;5016369;28;20302;-70
2021/08/01 02:59:45;;;;;;;5.95;3.80;;;17.10;95.50;;;;;;5016695;28;20026;-70
2021/08/01 03:02:11;;;;;;;5.15;3.47;;;17.10;95.60;;;;;;5015844;28;20022;-71
2021/08/01 03:04:41;;;;;;;4.85;3.58;;;17.10;95.70;;;;;;5012081;28;20041;-69
2021/08/01 03:07:08;;;;;;;5.03;3.90;;;17.10;95.70;;;;;;5020332;28;20527;-69
2021/08/01 03:09:34;;;;;;;8.02;4.18;;;17.10;95.80;;;;;;5017123;28;20469;-69
2021/08/01 03:12:14;;;;;;;6.43;4.10;;;17.10;95.80;;;;;;5014926;28;20030;-70
2021/08/01 03:14:40;;;;;;;6.13;4.43;;;17.00;95.90;;;;;;5008598;28;20535;-70
2021/08/01 03:17:06;;;;;;;6.63;4.50;;;17.00;96.10;;;;;;5013454;28;20030;-69
2021/08/01 03:19:37;;;;;;;7.75;4.57;;;16.90;96.20;;;;;;5016492;28;20022;-71
2021/08/01 03:22:04;;;;;;;4.28;3.60;;;16.90;96.20;;;;;;5013423;28;20084;-69
2021/08/01 03:24:29;;;;;;;7.30;4.25;;;17.00;96.30;;;;;;5015156;28;20029;-72
2021/08/01 03:26:55;;;;;;;7.97;4.72;;;17.00;96.30;;;;;;5019393;28;20079;-72
2021/08/01 03:29:21;;;;;;;7.30;4.32;;;16.90;96.30;;;;;;5013879;28;20723;-68
2021/08/01 03:31:46;;;;;;;6.35;4.68;;;17.00;96.40;;;;;;5018252;28;20045;-68
2021/08/01 03:34:12;;;;;;;8.35;4.90;;;16.90;96.60;;;;;;5019729;28;20061;-69
2021/08/01 03:36:38;;;;;;;7.22;4.35;;;16.80;96.60;;;;;;5014793;28;20362;-69
2021/08/01 03:39:04;;;;;;;7.00;4.40;;;16.90;96.60;;;;;;5017217;28;20026;-69
2021/08/01 03:41:30;;;;;;;7.10;4.15;;;16.90;96.60;;;;;;5006613;28;20172;-69
2021/08/01 03:43:55;;;;;;;6.07;4.38;;;16.90;96.50;;;;;;5017107;28;20080;-71
2021/08/01 03:46:21;;;;;;;6.15;3.97;;;16.90;96.50;;;;;;5013476;28;20144;-68
2021/08/01 03:48:47;;;;;;;6.00;3.97;;;16.90;96.50;;;;;;5011850;28;20033;-69
2021/08/01 03:51:13;;;;;;;7.18;4.53;;;16.90;96.40;;;;;;5010771;28;20031;-71
2021/08/01 03:53:38;;;;;;;4.85;3.90;;;16.90;96.30;;;;;;5012662;28;20038;-75
2021/08/01 03:56:04;;;;;;;6.57;3.95;;;16.90;96.20;;;;;;5015250;28;20044;-72
2021/08/01 03:58:31;;;;;;;7.70;4.38;;;16.90;96.10;;;;;;5016871;28;20030;-72
2021/08/01 04:00:57;;;;;;;5.60;3.58;;;16.90;96.10;;;;;;5010103;28;20058;-71
2021/08/01 04:03:23;;;;;;;4.53;3.40;;;16.90;96.10;;;;;;5020355;28;20032;-73
2021/08/01 04:05:49;;;;;;;6.65;3.20;;;16.90;96.10;;;;;;5020554;28;20547;-71
2021/08/01 04:08:14;;;;;;;7.43;3.40;;;16.90;96.20;;;;;;5012019;28;20037;-72
2021/08/01 04:10:40;;;;;;;6.57;3.55;;;16.90;96.20;;;;;;5011388;28;20084;-70
2021/08/01 04:13:06;;;;;;;5.80;3.90;;;16.90;96.10;;;;;;5015769;28;20403;-70
2021/08/01 04:15:32;;;;;;;6.10;3.80;;;16.90;96.10;;;;;;5013641;28;20105;-71
2021/08/01 04:18:01;;;;;;;6.90;3.58;;;16.90;96.10;;;;;;5020243;28;20036;-70
2021/08/01 04:20:28;;;;;;;6.68;3.25;;;16.80;96.10;;;;;;5010931;28;20032;-71
2021/08/01 04:22:54;;;;;;;6.47;4.20;;;16.80;96.20;;;;;;5011871;28;20022;-71
2021/08/01 04:25:20;;;;;;;6.70;4.38;;;16.80;96.20;;;;;;5016062;28;20026;-72
2021/08/01 04:27:45;;;;;;;11.15;4.68;;;16.70;96.50;;;;;;5018420;28;20022;-70
2021/08/01 04:30:11;;;;;;;8.35;4.60;;;16.70;96.50;;;;;;5024588;28;20096;-71
2021/08/01 04:32:37;;;;;;;8.00;4.15;;;16.70;96.60;;;;;;5013995;28;20095;-73
2021/08/01 04:35:05;;;;;;;9.35;5.50;;;16.70;96.60;;;;;;5023860;28;20112;-73
2021/08/01 04:37:31;;;;;;;6.65;4.43;;;16.80;96.50;;;;;;5018118;28;20030;-70
2021/08/01 04:39:56;;;;;;;9.40;5.15;;;16.80;96.30;;;;;;5017277;28;20104;-71
2021/08/01 04:42:22;;;;;;;10.18;5.30;;;16.80;96.30;;;;;;5016547;28;20053;-69
2021/08/01 04:44:48;;;;;;;7.43;5.53;;;16.80;96.20;;;;;;5017164;28;20025;-71
2021/08/01 04:47:14;;;;;;;9.30;4.95;;;16.80;96.30;;;;;;5018118;28;20034;-73
2021/08/01 04:49:41;;;;;;;8.68;5.00;;;16.90;96.30;;;;;;5022615;28;20053;-73
2021/08/01 04:52:07;;;;;;;9.95;5.95;;;16.90;96.10;;;;;;5020890;28;20100;-71
2021/08/01 04:54:36;;;;;;;9.07;5.07;;;16.90;96.00;;;;;;5018456;28;20030;-70
2021/08/01 04:57:05;;;;;;;11.40;5.90;;;16.90;96.00;;;;;;5019285;28;20030;-76
2021/08/01 04:59:34;;;;;;;10.20;5.97;;;16.90;95.90;;;;;;5018152;28;20082;-70
2021/08/01 05:02:01;;;;;;;15.75;6.05;;;16.90;95.90;;;;;;5023478;28;20476;-73
2021/08/01 05:04:27;;;;;;;9.48;5.60;;;16.90;95.90;;;;;;5014447;28;20030;-72
2021/08/01 05:06:53;;;;;;;7.78;5.60;;;16.90;95.90;;;;;;5001820;28;20049;-70
2021/08/01 05:09:19;;;;;;;9.25;5.10;;;16.90;95.90;;;;;;5019709;28;20484;-69
2021/08/01 05:11:45;;;;;;;6.93;5.60;;;16.90;95.90;;;;;;5024523;28;20037;-70
2021/08/01 05:14:10;;;;;;;9.80;5.05;;;17.00;95.80;;;;;;5014967;28;20536;-72
2021/08/01 05:16:36;;;;;;;8.82;5.30;;;17.00;95.90;;;;;;5019457;28;20033;-70
2021/08/01 05:19:02;;;;;;;8.85;5.72;;;17.00;95.90;;;;;;5018349;28;20091;-70
2021/08/01 05:21:27;;;;;;;10.13;5.63;;;17.00;95.90;;;;;;5015772;28;20025;-70
2021/08/01 05:23:53;;;;;;;6.45;4.60;;;17.00;95.80;;;;;;5022972;28;20188;-71
2021/08/01 05:26:19;;;;;;;8.68;5.38;;;17.10;95.80;;;;;;5019480;28;20372;-72
2021/08/01 05:28:44;;;;;;;9.00;5.43;;;17.10;95.70;;;;;;5014341;28;20057;-71
2021/08/01 05:31:10;;;;;;;8.50;5.47;;;17.10;95.70;;;;;;5017604;28;20036;-71
2021/08/01 05:33:36;;;;;;;9.32;5.43;;;17.00;95.70;;;;;;5021392;28;20037;-70
2021/08/01 05:36:09;;;;;;;12.60;6.03;;;17.10;95.70;;;;;;5016753;28;20034;-71
2021/08/01 05:38:39;;;;;;;9.63;5.00;;;17.10;95.70;;;;;;5031824;28;20423;-73
2021/08/01 05:41:05;;;;;;;8.13;5.15;;;17.20;95.60;;;;;;5013300;28;20026;-70
2021/08/01 05:43:31;;;;;;;8.80;5.07;;;17.50;95.20;;;;;;5013651;28;20518;-70
2021/08/01 05:45:57;;;;;;;9.20;5.35;;;17.70;95.00;;;;;;5015060;28;20125;-70
2021/08/01 05:48:23;;;;;;;6.60;4.47;;;17.80;94.60;;;;;;5018698;28;20492;-70
2021/08/01 05:50:49;;;;;;;10.90;5.22;;;18.00;94.30;;;;;;5016996;28;20052;-70
2021/08/01 05:53:17;;;;;;;9.68;4.85;;;18.10;94.10;;;;;;5018433;28;20040;-70
2021/08/01 05:55:43;;;;;;;8.10;5.25;;;18.10;94.00;;;;;;5017134;28;20045;-71
2021/08/01 05:58:09;;;;;;;12.07;5.43;;;18.20;93.70;;;;;;5023221;28;20056;-70
2021/08/01 06:00:34;;;;;;;10.75;5.97;;;18.20;93.70;;;;;;5014460;28;20068;-71
2021/08/01 06:03:00;;;;;;;11.45;5.88;;;18.20;93.60;;;;;;5019235;28;20391;-73
2021/08/01 06:05:26;;;;;;;8.30;5.78;;;18.10;93.50;;;;;;5016566;28;20566;-73
2021/08/01 06:07:51;;;;;;;10.68;6.55;;;18.00;93.60;;;;;;5021938;28;20044;-70
2021/08/01 06:10:17;;;;;;;9.65;5.60;;;17.90;93.80;;;;;;5013700;28;20443;-70
2021/08/01 06:12:43;;;;;;;11.27;7.25;;;17.80;94.00;;;;;;5017236;28;20040;-70
2021/08/01 06:15:09;;;;;;;9.60;6.25;;;17.70;94.20;;;;;;5016718;28;20145;-71
2021/08/01 06:17:35;;;;;;;8.95;6.60;;;17.60;94.30;;;;;;5025765;28;20022;-73
2021/08/01 06:20:00;;;;;;;9.52;6.47;;;17.70;94.40;;;;;;5017080;28;20040;-73
2021/08/01 06:22:26;;;;;;;8.57;5.85;;;17.70;94.40;;;;;;5013750;28;20104;-70
2021/08/01 06:24:52;;;;;;;11.50;6.45;;;17.70;94.40;;;;;;5014103;28;20057;-71
2021/08/01 06:27:18;;;;;;;10.35;6.70;;;17.70;94.30;;;;;;5011184;28;20044;-71
2021/08/01 06:29:44;;;;;;;13.10;6.93;;;17.80;94.30;;;;;;5019195;28;20030;-70
2021/08/01 06:32:10;;;;;;;10.75;6.25;;;17.80;94.20;;;;;;5014105;28;20033;-70
2021/08/01 06:34:36;;;;;;;10.88;7.00;;;17.80;94.20;;;;;;5016488;28;20112;-70
2021/08/01 06:37:02;;;;;;;7.85;5.82;;;17.80;94.10;;;;;;5014468;28;20033;-75
2021/08/01 06:39:27;;;;;;;14.82;7.35;;;17.80;94.10;;;;;;5016569;28;20483;-70
2021/08/01 06:41:53;;;;;;;10.10;6.28;;;17.90;94.00;;;;;;5021711;28;20026;-71
2021/08/01 06:44:19;;;;;;;14.38;7.18;;;17.90;94.00;;;;;;5022004;28;20037;-70
2021/08/01 06:46:44;;;;;;;9.77;6.13;;;17.80;94.00;;;;;;5023514;28;20028;-71
2021/08/01 06:49:10;;;;;;;11.27;6.78;;;17.80;94.00;;;;;;5018634;28;20017;-69
2021/08/01 06:51:36;;;;;;;10.35;6.20;;;17.80;94.00;;;;;;5021740;28;20036;-72
2021/08/01 06:54:01;;;;;;;11.77;6.50;;;17.80;94.10;;;;;;5009942;28;20042;-72
2021/08/01 06:56:29;;;;;;;9.98;6.28;;;17.90;94.10;;;;;;5016013;28;20099;-70
2021/08/01 06:58:54;;;;;;;10.57;6.03;;;17.90;94.10;;;;;;5016459;28;20021;-72
2021/08/01 07:01:20;;;;;;;9.63;6.10;;;17.90;94.10;;;;;;5014596;28;20563;-73
2021/08/01 07:03:46;;;;;;;15.30;7.72;;;17.90;94.10;;;;;;5016014;28;20021;-73
2021/08/01 07:06:12;;;;;;;10.80;6.88;;;17.90;94.10;;;;;;5018439;28;20099;-70
2021/08/01 07:08:38;;;;;;;10.50;6.10;;;17.90;93.90;;;;;;5017195;28;20026;-73
2021/08/01 07:11:04;;;;;;;8.23;6.03;;;18.00;94.00;;;;;;5017042;28;20038;-70
2021/08/01 07:13:29;;;;;;;7.70;5.63;;;18.00;93.90;;;;;;5011780;28;20160;-70
2021/08/01 07:16:03;;;;;;;9.85;6.32;;;18.00;93.90;;;;;;5017480;28;20109;-71
2021/08/01 07:18:28;;;;;;;10.25;7.00;;;18.10;93.90;;;;;;5008490;28;20049;-70
2021/08/01 07:20:54;;;;;;;12.63;7.22;;;18.10;93.80;;;;;;5014940;28;20022;-72
2021/08/01 07:23:20;;;;;;;52.10;25.40;;;18.10;93.60;;;;;;5014910;28;20372;-72
2021/08/01 07:25:46;;;;;;;19.48;11.50;;;18.20;93.60;;;;;;5011257;28;20480;-69
2021/08/01 07:28:11;;;;;;;12.65;8.60;;;18.20;93.80;;;;;;5018280;28;20028;-69
2021/08/01 07:30:37;;;;;;;12.68;8.18;;;18.20;93.80;;;;;;5010766;28;20022;-70
2021/08/01 07:33:03;;;;;;;11.43;6.90;;;18.20;93.70;;;;;;5008775;28;20029;-69
2021/08/01 07:35:29;;;;;;;13.98;9.32;;;18.30;93.70;;;;;;5013200;28;20029;-74
2021/08/01 07:37:54;;;;;;;14.52;8.48;;;18.40;93.70;;;;;;5019093;28;20108;-69
2021/08/01 07:40:21;;;;;;;9.45;6.80;;;18.50;93.60;;;;;;5017894;28;20030;-69
2021/08/01 07:42:47;;;;;;;12.68;7.85;;;18.50;93.50;;;;;;5016021;28;20528;-75
2021/08/01 07:45:24;;;;;;;11.15;7.00;;;18.50;93.10;;;;;;5013026;28;20125;-69
2021/08/01 07:47:50;;;;;;;11.88;6.93;;;18.60;93.20;;;;;;5004938;28;20022;-70
2021/08/01 07:50:17;;;;;;;13.85;7.70;;;18.70;93.10;;;;;;5015301;28;20037;-69
2021/08/01 07:52:42;;;;;;;9.70;5.53;;;18.60;93.00;;;;;;5012159;28;20065;-69
2021/08/01 07:55:09;;;;;;;10.23;5.93;;;18.60;92.80;;;;;;5016591;28;20049;-69
2021/08/01 07:57:35;;;;;;;10.98;6.95;;;18.60;92.90;;;;;;5010445;28;20056;-69
2021/08/01 08:00:04;;;;;;;11.68;6.93;;;18.60;92.90;;;;;;5011208;28;20037;-73
2021/08/01 08:02:30;;;;;;;10.18;5.88;;;18.60;92.60;;;;;;5005631;28;20152;-73
2021/08/01 08:04:55;;;;;;;9.25;5.93;;;18.60;92.70;;;;;;5011154;28;20108;-69
2021/08/01 08:07:21;;;;;;;8.23;5.80;;;18.60;92.50;;;;;;5009293;28;20139;-70
2021/08/01 08:09:49;;;;;;;8.98;5.55;;;18.60;92.50;;;;;;5013755;28;20040;-69
2021/08/01 08:12:15;;;;;;;7.88;5.28;;;18.60;92.50;;;;;;5009925;28;20033;-69
2021/08/01 08:14:41;;;;;;;7.20;5.30;;;18.70;92.40;;;;;;5013116;28;20097;-73
2021/08/01 08:17:06;;;;;;;8.05;5.70;;;18.70;92.30;;;;;;5012514;28;20500;-73
2021/08/01 08:19:32;;;;;;;10.68;6.90;;;18.80;92.40;;;;;;5013371;28;20053;-75
2021/08/01 08:21:58;;;;;;;10.48;6.25;;;18.90;92.00;;;;;;5013712;28;20029;-72
2021/08/01 08:24:25;;;;;;;6.97;5.53;;;19.00;92.00;;;;;;5010987;28;20650;-73
2021/08/01 08:26:50;;;;;;;9.02;5.88;;;19.00;91.60;;;;;;5018255;28;20484;-72
2021/08/01 08:29:16;;;;;;;9.55;6.00;;;18.90;91.70;;;;;;5012959;28;20149;-80
2021/08/01 08:31:49;;;;;;;9.82;5.55;;;18.90;91.80;;;;;;5011407;28;20395;-71
2021/08/01 08:34:15;;;;;;;10.93;6.50;;;19.00;92.00;;;;;;5012645;28;20030;-73
2021/08/01 08:36:41;;;;;;;7.72;6.05;;;19.00;91.70;;;;;;5011627;28;20034;-73
2021/08/01 08:39:07;;;;;;;11.07;5.60;;;19.00;91.70;;;;;;5010452;28;20026;-72
2021/08/01 08:41:33;;;;;;;8.52;5.75;;;19.00;91.60;;;;;;5009550;28;20045;-70
2021/08/01 08:43:59;;;;;;;7.18;5.03;;;19.00;91.50;;;;;;5013106;28;20040;-71
2021/08/01 08:46:26;;;;;;;6.60;4.32;;;19.00;91.30;;;;;;5011944;28;20037;-71
2021/08/01 08:48:54;;;;;;;71.55;63.80;;;19.00;91.30;;;;;;5014267;28;20048;-71
2021/08/01 08:51:24;;;;;;;43.90;39.03;;;19.00;91.60;;;;;;5017707;28;20078;-71
2021/08/01 08:53:53;;;;;;;7.95;5.18;;;19.00;91.40;;;;;;5015863;28;20045;-72
2021/08/01 08:56:21;;;;;;;5.97;4.05;;;19.10;90.90;;;;;;5009676;28;20109;-71
2021/08/01 08:58:50;;;;;;;11.35;5.32;;;19.30;91.00;;;;;;5013585;28;20045;-71
2021/08/01 09:01:16;;;;;;;7.00;4.47;;;19.40;90.90;;;;;;5014391;28;20439;-70
2021/08/01 09:03:42;;;;;;;6.35;4.20;;;19.50;90.20;;;;;;5018077;28;20034;-71
2021/08/01 09:06:08;;;;;;;6.72;4.40;;;19.50;90.30;;;;;;5012833;28;20075;-71
2021/08/01 09:08:34;;;;;;;7.25;4.43;;;19.50;90.20;;;;;;5010972;28;20026;-70
2021/08/01 09:11:00;;;;;;;8.88;3.90;;;19.60;90.30;;;;;;5007393;28;20030;-74
2021/08/01 09:13:46;;;;;;;4.88;4.05;;;19.60;90.20;;;;;;5012384;28;20034;-71
2021/08/01 09:16:13;;;;;;;6.47;4.40;;;19.70;90.30;;;;;;5017351;28;20038;-72
2021/08/01 09:18:39;;;;;;;7.28;3.80;;;19.90;89.00;;;;;;5016647;28;20030;-71
2021/08/01 09:21:05;;;;;;;4.68;3.60;;;19.90;89.40;;;;;;5017048;28;20022;-71
2021/08/01 09:23:31;;;;;;;4.38;3.90;;;19.90;89.50;;;;;;5012898;28;20117;-70
2021/08/01 09:26:02;;;;;;;7.30;3.97;;;19.80;89.40;;;;;;5017609;28;20101;-71
2021/08/01 09:28:28;;;;;;;6.50;3.70;;;19.80;89.20;;;;;;5017851;28;20033;-72
2021/08/01 09:30:56;;;;;;;6.35;3.70;;;19.60;89.30;;;;;;5019320;28;20025;-73
2021/08/01 09:33:44;;;;;;;5.05;3.88;;;19.50;90.00;;;;;;5015587;28;21507;-70
2021/08/01 09:36:18;;;;;;;5.57;3.72;;;19.50;90.30;;;;;;5014472;28;20424;-71
2021/08/01 09:38:52;;;;;;;4.78;3.53;;;19.50;90.20;;;;;;5020129;28;20072;-70
2021/08/01 09:41:37;;;;;;;6.03;3.75;;;19.50;90.20;;;;;;5012074;28;20064;-73
2021/08/01 09:44:07;;;;;;;5.90;3.22;;;19.50;90.20;;;;;;5014544;28;20031;-70
2021/08/01 09:46:44;;;;;;;5.63;3.50;;;19.60;90.00;;;;;;5019303;28;20061;-72
2021/08/01 09:49:13;;;;;;;5.22;3.08;;;19.70;88.70;;;;;;5025409;28;20404;-70
2021/08/01 09:51:44;;;;;;;2.90;2.60;;;19.90;88.40;;;;;;5019575;28;20024;-73
2021/08/01 09:54:11;;;;;;;4.53;3.05;;;20.00;87.50;;;;;;5018031;28;20120;-69
2021/08/01 09:56:57;;;;;;;3.88;2.45;;;20.00;86.00;;;;;;5015880;28;20040;-69
2021/08/01 09:59:26;;;;;;;3.35;2.60;;;20.10;86.40;;;;;;5011351;28;20041;-69
2021/08/01 10:01:58;;;;;;;3.97;2.78;;;20.20;85.70;;;;;;5015196;28;20102;-73
2021/08/01 10:04:34;;;;;;;2.97;2.55;;;20.30;85.40;;;;;;5014982;28;20030;-71
2021/08/01 10:07:02;;;;;;;5.47;3.33;;;20.40;85.30;;;;;;5014643;28;20032;-70
2021/08/01 10:09:28;;;;;;;3.10;2.40;;;20.30;85.10;;;;;;5018849;28;20041;-71
2021/08/01 10:11:54;;;;;;;3.53;2.70;;;20.30;85.40;;;;;;5014648;28;20026;-69
2021/08/01 10:14:20;;;;;;;3.45;2.70;;;20.10;85.30;;;;;;5019128;28;20045;-69
2021/08/01 10:16:46;;;;;;;7.35;3.17;;;20.10;85.80;;;;;;5016197;28;20452;-69
2021/08/01 10:19:12;;;;;;;3.35;2.83;;;20.10;85.60;;;;;;5015337;28;20026;-68
2021/08/01 10:21:39;;;;;;;5.13;2.92;;;20.20;85.30;;;;;;5017327;28;20030;-68
2021/08/01 10:24:09;;;;;;;6.85;3.10;;;20.00;85.20;;;;;;5008768;28;20117;-70
2021/08/01 10:26:37;;;;;;;3.67;2.80;;;20.00;85.90;;;;;;5012138;28;20062;-71
2021/08/01 10:29:07;;;;;;;3.75;2.95;;;20.00;86.30;;;;;;5013370;28;20029;-71
2021/08/01 10:31:50;;;;;;;5.82;3.33;;;20.10;86.50;;;;;;5017532;28;20026;-70
2021/08/01 10:34:35;;;;;;;4.45;3.28;;;20.20;85.80;;;;;;5012930;28;20477;-70
2021/08/01 10:37:04;;;;;;;3.60;3.03;;;20.60;85.50;;;;;;5015529;28;20041;-71
2021/08/01 10:39:33;;;;;;;5.78;3.70;;;20.70;84.70;;;;;;5012427;28;20026;-71
2021/08/01 10:42:06;;;;;;;4.45;3.10;;;20.70;84.90;;;;;;5004209;28;20495;-72
2021/08/01 10:44:33;;;;;;;3.47;3.17;;;20.90;85.10;;;;;;5004077;28;20068;-73
2021/08/01 10:47:00;;;;;;;3.90;3.50;;;21.00;84.20;;;;;;5009582;28;20037;-75
2021/08/01 10:49:26;;;;;;;4.85;3.10;;;20.90;83.40;;;;;;5026711;28;20044;-69
2021/08/01 10:51:52;;;;;;;4.70;3.22;;;20.80;83.30;;;;;;5023114;28;20028;-70
2021/08/01 10:54:20;;;;;;;4.35;2.70;;;20.80;83.50;;;;;;5016231;28;20046;-71
2021/08/01 10:56:47;;;;;;;4.78;2.97;;;20.80;83.40;;;;;;5014335;28;20071;-72
2021/08/01 10:59:44;;;;;;;3.70;3.08;;;20.80;82.70;;;;;;5011620;28;20582;-71
2021/08/01 11:02:18;;;;;;;4.30;2.80;;;21.00;82.60;;;;;;5006638;28;20027;-72
2021/08/01 11:04:45;;;;;;;5.25;2.88;;;21.10;82.30;;;;;;5013737;28;20041;-70
2021/08/01 11:07:12;;;;;;;5.70;3.00;;;21.10;80.90;;;;;;5017181;28;20412;-71
2021/08/01 11:09:37;;;;;;;4.30;2.95;;;21.00;81.10;;;;;;5009819;28;20038;-71
2021/08/01 11:12:22;;;;;;;6.90;3.58;;;20.90;81.80;;;;;;5009792;28;20049;-70
2021/08/01 11:14:53;;;;;;;7.97;3.78;;;20.70;83.80;;;;;;5017006;28;20041;-73
2021/08/01 11:17:20;;;;;;;;;;;20.40;88.80;;;;;;5016612;28;20079;-70
2021/08/01 11:19:46;;;;;;;5.65;4.53;;;20.00;91.30;;;;;;5017529;28;19917;-71
2021/08/01 11:22:40;;;;;;;6.97;4.30;;;19.70;92.30;;;;;;5018200;28;20028;-69
2021/08/01 11:25:25;;;;;;;6.78;4.97;;;19.40;92.60;;;;;;5019408;28;20507;-67
2021/08/01 11:28:09;;;;;;;7.20;3.55;;;19.20;93.20;;;;;;5009422;28;20033;-69
2021/08/01 11:30:53;;;;;;;7.43;3.83;;;19.20;93.40;;;;;;5017655;28;20108;-69
2021/08/01 11:33:45;;;;;;;178.70;159.63;;;19.10;93.40;;;;;;5010459;28;20031;-69
2021/08/01 11:36:17;;;;;;;100.93;69.40;;;19.00;93.30;;;;;;5009426;28;20030;-71
2021/08/01 11:38:48;;;;;;;364.65;249.63;;;18.90;93.10;;;;;;5006239;28;20029;-72
2021/08/01 11:41:38;;;;;;;49.92;39.67;;;18.80;93.30;;;;;;5020169;28;20413;-68
2021/08/01 11:44:17;;;;;;;14.35;8.32;;;18.70;94.10;;;;;;5014896;28;20148;-69
2021/08/01 11:47:11;;;;;;;10.80;5.05;;;18.50;96.10;;;;;;5018141;28;20083;-68
2021/08/01 11:49:42;;;;;;;8.88;5.07;;;18.30;97.70;;;;;;5015914;28;20369;-69
2021/08/01 11:52:09;;;;;;;8.73;4.40;;;18.30;98.40;;;;;;5012569;28;20117;-68
2021/08/01 11:54:39;;;;;;;8.98;4.32;;;18.30;98.60;;;;;;5011488;28;20669;-67
2021/08/01 11:57:07;;;;;;;7.22;4.00;;;18.30;99.40;;;;;;5010824;28;20034;-68
2021/08/01 11:59:33;;;;;;;5.32;3.55;;;18.30;99.00;;;;;;5010248;28;20026;-68
2021/08/01 12:02:00;;;;;;;8.35;4.63;;;18.30;99.10;;;;;;5011829;28;20025;-69
2021/08/01 12:04:27;;;;;;;6.03;3.50;;;18.10;99.10;;;;;;5007049;28;20033;-72
2021/08/01 12:06:57;;;;;;;5.57;3.47;;;18.00;99.40;;;;;;5023110;28;20248;-71
2021/08/01 12:09:28;;;;;;;5.78;3.60;;;17.90;99.70;;;;;;5017352;28;20108;-72
2021/08/01 12:11:54;;;;;;;;;;;17.90;99.90;;;;;;5009810;28;20162;-75
2021/08/01 12:14:32;;;;;;;8.10;3.90;;;18.40;99.90;;;;;;5012155;28;19917;-71
2021/08/01 12:17:06;;;;;;;6.72;3.28;;;18.70;99.90;;;;;;5008317;28;20384;-70
2021/08/01 12:19:43;;;;;;;6.22;3.38;;;18.70;99.60;;;;;;5005083;28;20097;-72
2021/08/01 12:22:14;;;;;;;5.43;2.95;;;18.50;99.30;;;;;;5006364;28;20472;-73
2021/08/01 12:24:50;;;;;;;4.55;2.88;;;18.30;98.90;;;;;;5010258;28;20022;-71
2021/08/01 12:27:22;;;;;;;3.63;3.05;;;18.20;99.80;;;;;;5001829;28;20625;-71
2021/08/01 12:29:54;;;;;;;4.50;3.17;;;18.30;99.90;;;;;;5010465;28;20104;-70
2021/08/01 12:32:39;;;;;;;5.20;2.80;;;18.30;99.70;;;;;;5001923;28;20032;-71
2021/08/01 12:35:13;;;;;;;4.50;3.00;;;18.20;99.50;;;;;;5008994;28;20555;-70
2021/08/01 12:37:42;;;;;;;4.30;2.80;;;18.10;99.60;;;;;;5017275;28;20484;-74
2021/08/01 12:40:09;;;;;;;4.72;3.00;;;17.90;99.40;;;;;;5011174;28;20032;-73
2021/08/01 12:42:36;;;;;;;5.40;3.20;;;17.80;99.70;;;;;;5008713;28;20448;-72
2021/08/01 12:45:04;;;;;;;7.80;3.85;;;17.70;99.90;;;;;;5009949;28;20030;-69
2021/08/01 12:47:31;;;;;;;4.45;3.53;;;17.60;99.90;;;;;;4995280;28;20072;-71
2021/08/01 12:50:04;;;;;;;3.75;3.22;;;17.70;99.90;;;;;;5013289;28;20030;-69
2021/08/01 12:52:30;;;;;;;4.25;3.00;;;17.60;99.90;;;;;;5018740;28;20487;-69
2021/08/01 12:54:56;;;;;;;6.32;3.50;;;17.70;99.90;;;;;;5018805;28;20441;-69